sensor_id;sensor_type;location;lat;lon;timestamp;P1;durP1;ratioP1;P2;durP2;ratioP2
7823;SDS011;3957;48.61947800;9.05303100;2022-08-19T00:00:39;14.33;;;10.73;;
7823;SDS011;3957;48.61947800;9.05303100;2022-08-19T00:02:00;13.07;;;10.13;;
7823;SDS011;3957;48.61947800;9.05303100;2022-08-19T00:03:20;15.13;;;10.63;;
7823;SDS011;3957;48.61947800;9.05303100;2022-08-19T00:04:41;17.30;;;11.02;;
7823;SDS011;3957;48.61947800;9.05303100;2022-08-19T00:06:02;14.02;;;10.07;;
7823;SDS011;3957;48.61947800;9.05303100;2022-08-19T00:07:23;12.82;;;9.95;;
7823;SDS011;3957;48.61947800;9.05303100;2022-08-19T00:08:44;15.25;;;10.55;;
7823;SDS011;3957;48.61947800;9.05303100;2022-08-19T00:10:05;15.73;;;10.50;;
7823;SDS011;3957;48.61947800;9.05303100;2022-08-19T00:11:28;14.00;;;10.02;;
7823;SDS011;3957;48.61947800;9.05303100;2022-08-19T00:12:50;16.08;;;10.95;;
7823;SDS011;3957;48.61947800;9.05303100;2022-08-19T00:14:11;13.93;;;10.50;;
7823;SDS011;3957;48.61947800;9.05303100;2022-08-19T00:15:33;15.23;;;10.60;;
7823;SDS011;3957;48.61947800;9.05303100;2022-08-19T00:16:54;16.35;;;10.98;;
7823;SDS011;3957;48.61947800;9.05303100;2022-08-19T00:18:18;13.30;;;10.45;;
7823;SDS011;3957;48.61947800;9.05303100;2022-08-19T00:19:39;16.63;;;10.45;;
7823;SDS011;3957;48.61947800;9.05303100;2022-08-19T00:21:00;15.85;;;11.57;;
7823;SDS011;3957;48.61947800;9.05303100;2022-08-19T00:22:22;14.95;;;11.15;;
7823;SDS011;3957;48.61947800;9.05303100;2022-08-19T00:23:43;15.90;;;10.98;;
7823;SDS011;3957;48.61947800;9.05303100;2022-08-19T00:25:04;15.45;;;11.00;;
7823;SDS011;3957;48.61947800;9.05303100;2022-08-19T00:26:26;14.35;;;10.80;;
7823;SDS011;3957;48.61947800;9.05303100;2022-08-19T00:27:48;18.30;;;11.38;;
7823;SDS011;3957;48.61947800;9.05303100;2022-08-19T00:29:09;13.52;;;9.98;;
7823;SDS011;3957;48.61947800;9.05303100;2022-08-19T00:30:32;10.73;;;8.27;;
7823;SDS011;3957;48.61947800;9.05303100;2022-08-19T00:31:53;15.13;;;9.85;;
7823;SDS011;3957;48.61947800;9.05303100;2022-08-19T00:33:15;18.05;;;10.80;;
7823;SDS011;3957;48.61947800;9.05303100;2022-08-19T00:34:36;13.40;;;9.95;;
7823;SDS011;3957;48.61947800;9.05303100;2022-08-19T00:35:58;15.85;;;10.77;;
7823;SDS011;3957;48.61947800;9.05303100;2022-08-19T00:37:24;14.13;;;10.20;;
7823;SDS011;3957;48.61947800;9.05303100;2022-08-19T00:38:47;14.38;;;10.60;;
7823;SDS011;3957;48.61947800;9.05303100;2022-08-19T00:40:07;15.15;;;10.05;;
7823;SDS011;3957;48.61947800;9.05303100;2022-08-19T00:41:29;17.75;;;11.10;;
7823;SDS011;3957;48.61947800;9.05303100;2022-08-19T00:42:50;15.40;;;11.52;;
7823;SDS011;3957;48.61947800;9.05303100;2022-08-19T00:44:19;19.30;;;12.88;;
7823;SDS011;3957;48.61947800;9.05303100;2022-08-19T00:45:42;16.20;;;11.98;;
7823;SDS011;3957;48.61947800;9.05303100;2022-08-19T00:47:04;20.20;;;13.37;;
7823;SDS011;3957;48.61947800;9.05303100;2022-08-19T00:48:25;18.73;;;12.63;;
7823;SDS011;3957;48.61947800;9.05303100;2022-08-19T00:49:48;18.15;;;12.50;;
7823;SDS011;3957;48.61947800;9.05303100;2022-08-19T00:51:14;17.25;;;12.18;;
7823;SDS011;3957;48.61947800;9.05303100;2022-08-19T00:52:36;18.02;;;13.27;;
7823;SDS011;3957;48.61947800;9.05303100;2022-08-19T00:54:02;19.05;;;13.05;;
7823;SDS011;3957;48.61947800;9.05303100;2022-08-19T00:55:24;19.83;;;13.35;;
7823;SDS011;3957;48.61947800;9.05303100;2022-08-19T00:56:49;18.23;;;12.90;;
7823;SDS011;3957;48.61947800;9.05303100;2022-08-19T00:58:12;20.55;;;13.35;;
7823;SDS011;3957;48.61947800;9.05303100;2022-08-19T00:59:36;18.10;;;12.85;;
7823;SDS011;3957;48.61947800;9.05303100;2022-08-19T01:01:00;20.60;;;13.25;;
7823;SDS011;3957;48.61947800;9.05303100;2022-08-19T01:02:23;18.92;;;13.95;;
7823;SDS011;3957;48.61947800;9.05303100;2022-08-19T01:03:44;21.52;;;13.93;;
7823;SDS011;3957;48.61947800;9.05303100;2022-08-19T01:05:06;21.02;;;14.35;;
7823;SDS011;3957;48.61947800;9.05303100;2022-08-19T01:06:32;20.55;;;13.88;;
7823;SDS011;3957;48.61947800;9.05303100;2022-08-19T01:07:54;22.52;;;14.13;;
7823;SDS011;3957;48.61947800;9.05303100;2022-08-19T01:09:17;21.55;;;14.57;;
7823;SDS011;3957;48.61947800;9.05303100;2022-08-19T01:10:48;23.98;;;14.32;;
7823;SDS011;3957;48.61947800;9.05303100;2022-08-19T01:12:14;19.42;;;13.10;;
7823;SDS011;3957;48.61947800;9.05303100;2022-08-19T01:13:37;21.65;;;14.50;;
7823;SDS011;3957;48.61947800;9.05303100;2022-08-19T01:14:57;21.88;;;14.05;;
7823;SDS011;3957;48.61947800;9.05303100;2022-08-19T01:16:21;21.42;;;13.93;;
7823;SDS011;3957;48.61947800;9.05303100;2022-08-19T01:17:44;20.88;;;13.38;;
7823;SDS011;3957;48.61947800;9.05303100;2022-08-19T01:20:48;18.95;;;13.63;;
7823;SDS011;3957;48.61947800;9.05303100;2022-08-19T01:22:14;22.35;;;14.98;;
7823;SDS011;3957;48.61947800;9.05303100;2022-08-19T01:23:37;21.30;;;13.97;;
7823;SDS011;3957;48.61947800;9.05303100;2022-08-19T01:25:03;26.08;;;15.30;;
7823;SDS011;3957;48.61947800;9.05303100;2022-08-19T01:26:25;21.70;;;15.20;;
7823;SDS011;3957;48.61947800;9.05303100;2022-08-19T01:27:48;25.42;;;15.75;;
7823;SDS011;3957;48.61947800;9.05303100;2022-08-19T01:29:10;23.98;;;15.77;;
7823;SDS011;3957;48.61947800;9.05303100;2022-08-19T01:30:33;23.48;;;15.10;;
7823;SDS011;3957;48.61947800;9.05303100;2022-08-19T01:31:55;23.27;;;15.23;;
7823;SDS011;3957;48.61947800;9.05303100;2022-08-19T01:33:16;21.40;;;14.93;;
7823;SDS011;3957;48.61947800;9.05303100;2022-08-19T01:34:37;21.05;;;14.07;;
7823;SDS011;3957;48.61947800;9.05303100;2022-08-19T01:36:09;21.15;;;14.25;;
7823;SDS011;3957;48.61947800;9.05303100;2022-08-19T01:37:43;23.60;;;14.18;;
7823;SDS011;3957;48.61947800;9.05303100;2022-08-19T01:39:17;22.05;;;14.88;;
7823;SDS011;3957;48.61947800;9.05303100;2022-08-19T01:40:40;21.58;;;14.75;;
7823;SDS011;3957;48.61947800;9.05303100;2022-08-19T01:42:02;20.95;;;14.63;;
7823;SDS011;3957;48.61947800;9.05303100;2022-08-19T01:43:24;22.67;;;14.57;;
7823;SDS011;3957;48.61947800;9.05303100;2022-08-19T01:44:45;25.55;;;15.43;;
7823;SDS011;3957;48.61947800;9.05303100;2022-08-19T01:46:06;23.25;;;14.68;;
7823;SDS011;3957;48.61947800;9.05303100;2022-08-19T01:47:27;21.40;;;15.23;;
7823;SDS011;3957;48.61947800;9.05303100;2022-08-19T01:48:48;23.42;;;14.75;;
7823;SDS011;3957;48.61947800;9.05303100;2022-08-19T01:50:09;21.58;;;15.18;;
7823;SDS011;3957;48.61947800;9.05303100;2022-08-19T01:51:31;21.17;;;14.93;;
7823;SDS011;3957;48.61947800;9.05303100;2022-08-19T01:52:53;21.35;;;14.95;;
7823;SDS011;3957;48.61947800;9.05303100;2022-08-19T01:54:14;19.67;;;14.27;;
7823;SDS011;3957;48.61947800;9.05303100;2022-08-19T01:55:38;23.92;;;14.98;;
7823;SDS011;3957;48.61947800;9.05303100;2022-08-19T01:57:03;21.20;;;15.05;;
7823;SDS011;3957;48.61947800;9.05303100;2022-08-19T01:58:28;25.88;;;15.55;;
7823;SDS011;3957;48.61947800;9.05303100;2022-08-19T01:59:52;24.60;;;15.80;;
7823;SDS011;3957;48.61947800;9.05303100;2022-08-19T02:01:14;24.88;;;15.98;;
7823;SDS011;3957;48.61947800;9.05303100;2022-08-19T02:02:34;21.48;;;14.32;;
7823;SDS011;3957;48.61947800;9.05303100;2022-08-19T02:03:55;21.63;;;15.05;;
7823;SDS011;3957;48.61947800;9.05303100;2022-08-19T02:05:16;23.50;;;15.60;;
7823;SDS011;3957;48.61947800;9.05303100;2022-08-19T02:06:38;22.25;;;15.02;;
7823;SDS011;3957;48.61947800;9.05303100;2022-08-19T02:08:00;26.38;;;16.17;;
7823;SDS011;3957;48.61947800;9.05303100;2022-08-19T02:09:20;21.02;;;15.50;;
7823;SDS011;3957;48.61947800;9.05303100;2022-08-19T02:10:42;21.77;;;15.60;;
7823;SDS011;3957;48.61947800;9.05303100;2022-08-19T02:12:04;22.15;;;15.70;;
7823;SDS011;3957;48.61947800;9.05303100;2022-08-19T02:13:28;22.25;;;15.15;;
7823;SDS011;3957;48.61947800;9.05303100;2022-08-19T02:14:49;25.45;;;15.77;;
7823;SDS011;3957;48.61947800;9.05303100;2022-08-19T02:16:10;22.83;;;15.30;;
7823;SDS011;3957;48.61947800;9.05303100;2022-08-19T02:17:30;23.10;;;15.27;;
7823;SDS011;3957;48.61947800;9.05303100;2022-08-19T02:18:52;21.80;;;15.30;;
7823;SDS011;3957;48.61947800;9.05303100;2022-08-19T02:20:13;20.98;;;15.05;;
7823;SDS011;3957;48.61947800;9.05303100;2022-08-19T02:21:34;23.40;;;16.02;;
7823;SDS011;3957;48.61947800;9.05303100;2022-08-19T02:22:55;24.27;;;16.17;;
7823;SDS011;3957;48.61947800;9.05303100;2022-08-19T02:24:16;23.10;;;15.73;;
7823;SDS011;3957;48.61947800;9.05303100;2022-08-19T02:25:37;24.98;;;16.48;;
7823;SDS011;3957;48.61947800;9.05303100;2022-08-19T02:26:58;24.23;;;15.70;;
7823;SDS011;3957;48.61947800;9.05303100;2022-08-19T02:28:19;26.23;;;16.63;;
7823;SDS011;3957;48.61947800;9.05303100;2022-08-19T02:29:40;22.80;;;16.00;;
7823;SDS011;3957;48.61947800;9.05303100;2022-08-19T02:31:01;25.08;;;15.88;;
7823;SDS011;3957;48.61947800;9.05303100;2022-08-19T02:32:23;21.83;;;15.30;;
7823;SDS011;3957;48.61947800;9.05303100;2022-08-19T02:33:44;23.13;;;14.95;;
7823;SDS011;3957;48.61947800;9.05303100;2022-08-19T02:35:05;22.40;;;15.32;;
7823;SDS011;3957;48.61947800;9.05303100;2022-08-19T02:36:27;22.52;;;14.98;;
7823;SDS011;3957;48.61947800;9.05303100;2022-08-19T02:37:48;24.13;;;15.85;;
7823;SDS011;3957;48.61947800;9.05303100;2022-08-19T02:39:27;24.40;;;16.08;;
7823;SDS011;3957;48.61947800;9.05303100;2022-08-19T02:40:49;21.30;;;15.00;;
7823;SDS011;3957;48.61947800;9.05303100;2022-08-19T02:42:12;23.65;;;15.82;;
7823;SDS011;3957;48.61947800;9.05303100;2022-08-19T02:43:33;25.90;;;16.00;;
7823;SDS011;3957;48.61947800;9.05303100;2022-08-19T02:44:57;26.73;;;15.98;;
7823;SDS011;3957;48.61947800;9.05303100;2022-08-19T02:46:19;23.67;;;16.60;;
7823;SDS011;3957;48.61947800;9.05303100;2022-08-19T02:47:42;25.35;;;15.93;;
7823;SDS011;3957;48.61947800;9.05303100;2022-08-19T02:49:04;23.17;;;15.52;;
7823;SDS011;3957;48.61947800;9.05303100;2022-08-19T02:50:26;22.48;;;15.30;;
7823;SDS011;3957;48.61947800;9.05303100;2022-08-19T02:51:47;22.83;;;15.52;;
7823;SDS011;3957;48.61947800;9.05303100;2022-08-19T02:53:08;24.08;;;16.55;;
7823;SDS011;3957;48.61947800;9.05303100;2022-08-19T02:54:29;21.88;;;16.02;;
7823;SDS011;3957;48.61947800;9.05303100;2022-08-19T02:55:50;24.65;;;16.10;;
7823;SDS011;3957;48.61947800;9.05303100;2022-08-19T02:57:11;23.80;;;15.80;;
7823;SDS011;3957;48.61947800;9.05303100;2022-08-19T02:58:32;25.83;;;16.23;;
7823;SDS011;3957;48.61947800;9.05303100;2022-08-19T02:59:53;22.65;;;15.65;;
7823;SDS011;3957;48.61947800;9.05303100;2022-08-19T03:01:22;23.88;;;16.25;;
7823;SDS011;3957;48.61947800;9.05303100;2022-08-19T03:02:45;22.98;;;16.58;;
7823;SDS011;3957;48.61947800;9.05303100;2022-08-19T03:04:10;24.60;;;15.93;;
7823;SDS011;3957;48.61947800;9.05303100;2022-08-19T03:05:32;22.35;;;15.98;;
7823;SDS011;3957;48.61947800;9.05303100;2022-08-19T03:06:53;23.67;;;15.60;;
7823;SDS011;3957;48.61947800;9.05303100;2022-08-19T03:08:14;22.25;;;15.63;;
7823;SDS011;3957;48.61947800;9.05303100;2022-08-19T03:09:36;21.83;;;15.48;;
7823;SDS011;3957;48.61947800;9.05303100;2022-08-19T03:10:58;22.02;;;15.48;;
7823;SDS011;3957;48.61947800;9.05303100;2022-08-19T03:12:18;25.23;;;16.10;;
7823;SDS011;3957;48.61947800;9.05303100;2022-08-19T03:13:39;24.63;;;16.27;;
7823;SDS011;3957;48.61947800;9.05303100;2022-08-19T03:15:00;23.10;;;16.38;;
7823;SDS011;3957;48.61947800;9.05303100;2022-08-19T03:16:22;22.20;;;15.88;;
7823;SDS011;3957;48.61947800;9.05303100;2022-08-19T03:17:45;21.98;;;15.00;;
7823;SDS011;3957;48.61947800;9.05303100;2022-08-19T03:19:06;20.70;;;14.15;;
7823;SDS011;3957;48.61947800;9.05303100;2022-08-19T03:20:27;22.45;;;14.70;;
7823;SDS011;3957;48.61947800;9.05303100;2022-08-19T03:21:47;20.00;;;13.50;;
7823;SDS011;3957;48.61947800;9.05303100;2022-08-19T03:23:09;19.15;;;13.85;;
7823;SDS011;3957;48.61947800;9.05303100;2022-08-19T03:24:31;22.17;;;14.90;;
7823;SDS011;3957;48.61947800;9.05303100;2022-08-19T03:25:52;22.58;;;16.05;;
7823;SDS011;3957;48.61947800;9.05303100;2022-08-19T03:27:13;21.65;;;15.55;;
7823;SDS011;3957;48.61947800;9.05303100;2022-08-19T03:28:34;21.52;;;15.05;;
7823;SDS011;3957;48.61947800;9.05303100;2022-08-19T03:29:55;21.33;;;15.40;;
7823;SDS011;3957;48.61947800;9.05303100;2022-08-19T03:31:18;21.60;;;14.70;;
7823;SDS011;3957;48.61947800;9.05303100;2022-08-19T03:32:40;21.42;;;14.18;;
7823;SDS011;3957;48.61947800;9.05303100;2022-08-19T03:34:01;24.55;;;15.73;;
7823;SDS011;3957;48.61947800;9.05303100;2022-08-19T03:35:21;23.98;;;15.30;;
7823;SDS011;3957;48.61947800;9.05303100;2022-08-19T03:36:42;22.25;;;15.98;;
7823;SDS011;3957;48.61947800;9.05303100;2022-08-19T03:38:03;22.30;;;15.18;;
7823;SDS011;3957;48.61947800;9.05303100;2022-08-19T03:39:26;20.02;;;14.80;;
7823;SDS011;3957;48.61947800;9.05303100;2022-08-19T03:40:47;20.73;;;14.15;;
7823;SDS011;3957;48.61947800;9.05303100;2022-08-19T03:42:08;20.48;;;14.00;;
7823;SDS011;3957;48.61947800;9.05303100;2022-08-19T03:43:30;22.80;;;15.38;;
7823;SDS011;3957;48.61947800;9.05303100;2022-08-19T03:44:51;21.65;;;15.65;;
7823;SDS011;3957;48.61947800;9.05303100;2022-08-19T03:46:14;22.83;;;15.98;;
7823;SDS011;3957;48.61947800;9.05303100;2022-08-19T03:47:43;19.83;;;14.95;;
7823;SDS011;3957;48.61947800;9.05303100;2022-08-19T03:49:04;25.02;;;15.93;;
7823;SDS011;3957;48.61947800;9.05303100;2022-08-19T03:50:27;22.77;;;16.17;;
7823;SDS011;3957;48.61947800;9.05303100;2022-08-19T03:51:48;24.08;;;15.95;;
7823;SDS011;3957;48.61947800;9.05303100;2022-08-19T03:53:10;25.58;;;16.75;;
7823;SDS011;3957;48.61947800;9.05303100;2022-08-19T03:54:31;22.05;;;15.90;;
7823;SDS011;3957;48.61947800;9.05303100;2022-08-19T03:55:52;22.77;;;15.77;;
7823;SDS011;3957;48.61947800;9.05303100;2022-08-19T03:57:14;26.15;;;17.70;;
7823;SDS011;3957;48.61947800;9.05303100;2022-08-19T03:58:34;24.77;;;16.85;;
7823;SDS011;3957;48.61947800;9.05303100;2022-08-19T03:59:58;22.17;;;15.25;;
7823;SDS011;3957;48.61947800;9.05303100;2022-08-19T04:01:19;21.52;;;15.40;;
7823;SDS011;3957;48.61947800;9.05303100;2022-08-19T04:02:42;24.08;;;15.65;;
7823;SDS011;3957;48.61947800;9.05303100;2022-08-19T04:04:04;24.00;;;16.17;;
7823;SDS011;3957;48.61947800;9.05303100;2022-08-19T04:05:28;26.05;;;18.10;;
7823;SDS011;3957;48.61947800;9.05303100;2022-08-19T04:06:50;26.80;;;18.40;;
7823;SDS011;3957;48.61947800;9.05303100;2022-08-19T04:08:11;25.85;;;17.23;;
7823;SDS011;3957;48.61947800;9.05303100;2022-08-19T04:09:33;23.65;;;17.08;;
7823;SDS011;3957;48.61947800;9.05303100;2022-08-19T04:10:54;25.23;;;17.58;;
7823;SDS011;3957;48.61947800;9.05303100;2022-08-19T04:12:15;25.38;;;17.23;;
7823;SDS011;3957;48.61947800;9.05303100;2022-08-19T04:13:36;23.83;;;17.00;;
7823;SDS011;3957;48.61947800;9.05303100;2022-08-19T04:14:58;22.30;;;17.08;;
7823;SDS011;3957;48.61947800;9.05303100;2022-08-19T04:16:19;24.30;;;16.25;;
7823;SDS011;3957;48.61947800;9.05303100;2022-08-19T04:17:41;26.38;;;18.33;;
7823;SDS011;3957;48.61947800;9.05303100;2022-08-19T04:19:03;24.80;;;17.65;;
7823;SDS011;3957;48.61947800;9.05303100;2022-08-19T04:20:25;21.67;;;15.70;;
7823;SDS011;3957;48.61947800;9.05303100;2022-08-19T04:21:49;25.58;;;18.27;;
7823;SDS011;3957;48.61947800;9.05303100;2022-08-19T04:23:12;27.08;;;18.20;;
7823;SDS011;3957;48.61947800;9.05303100;2022-08-19T04:24:34;27.45;;;18.33;;
7823;SDS011;3957;48.61947800;9.05303100;2022-08-19T04:25:55;28.17;;;18.90;;
7823;SDS011;3957;48.61947800;9.05303100;2022-08-19T04:27:16;27.67;;;17.48;;
7823;SDS011;3957;48.61947800;9.05303100;2022-08-19T04:28:37;29.48;;;18.40;;
7823;SDS011;3957;48.61947800;9.05303100;2022-08-19T04:29:58;26.08;;;18.40;;
7823;SDS011;3957;48.61947800;9.05303100;2022-08-19T04:31:20;26.15;;;19.38;;
7823;SDS011;3957;48.61947800;9.05303100;2022-08-19T04:32:46;28.30;;;18.45;;
7823;SDS011;3957;48.61947800;9.05303100;2022-08-19T04:34:07;29.60;;;19.27;;
7823;SDS011;3957;48.61947800;9.05303100;2022-08-19T04:35:40;29.60;;;18.65;;
7823;SDS011;3957;48.61947800;9.05303100;2022-08-19T04:37:04;24.98;;;17.30;;
7823;SDS011;3957;48.61947800;9.05303100;2022-08-19T04:38:31;27.13;;;17.98;;
7823;SDS011;3957;48.61947800;9.05303100;2022-08-19T04:39:52;27.33;;;18.92;;
7823;SDS011;3957;48.61947800;9.05303100;2022-08-19T04:41:33;25.52;;;17.77;;
7823;SDS011;3957;48.61947800;9.05303100;2022-08-19T04:43:13;26.58;;;18.02;;
7823;SDS011;3957;48.61947800;9.05303100;2022-08-19T04:44:35;29.60;;;19.60;;
7823;SDS011;3957;48.61947800;9.05303100;2022-08-19T04:45:56;30.02;;;19.23;;
7823;SDS011;3957;48.61947800;9.05303100;2022-08-19T04:47:17;28.10;;;18.73;;
7823;SDS011;3957;48.61947800;9.05303100;2022-08-19T04:48:38;27.52;;;18.13;;
7823;SDS011;3957;48.61947800;9.05303100;2022-08-19T04:49:59;29.38;;;19.27;;
7823;SDS011;3957;48.61947800;9.05303100;2022-08-19T04:51:20;30.70;;;20.38;;
7823;SDS011;3957;48.61947800;9.05303100;2022-08-19T04:52:41;27.70;;;19.60;;
7823;SDS011;3957;48.61947800;9.05303100;2022-08-19T04:54:04;27.25;;;18.98;;
7823;SDS011;3957;48.61947800;9.05303100;2022-08-19T04:55:25;30.15;;;20.00;;
7823;SDS011;3957;48.61947800;9.05303100;2022-08-19T04:56:46;26.60;;;18.35;;
7823;SDS011;3957;48.61947800;9.05303100;2022-08-19T04:58:07;32.28;;;19.80;;
7823;SDS011;3957;48.61947800;9.05303100;2022-08-19T04:59:28;27.77;;;19.27;;
7823;SDS011;3957;48.61947800;9.05303100;2022-08-19T05:00:48;28.75;;;20.13;;
7823;SDS011;3957;48.61947800;9.05303100;2022-08-19T05:02:09;24.33;;;17.90;;
7823;SDS011;3957;48.61947800;9.05303100;2022-08-19T05:03:30;28.83;;;20.13;;
7823;SDS011;3957;48.61947800;9.05303100;2022-08-19T05:04:57;29.83;;;19.70;;
7823;SDS011;3957;48.61947800;9.05303100;2022-08-19T05:06:20;25.77;;;17.70;;
7823;SDS011;3957;48.61947800;9.05303100;2022-08-19T05:07:42;28.42;;;19.75;;
7823;SDS011;3957;48.61947800;9.05303100;2022-08-19T05:09:03;27.42;;;18.00;;
7823;SDS011;3957;48.61947800;9.05303100;2022-08-19T05:10:25;29.13;;;20.15;;
7823;SDS011;3957;48.61947800;9.05303100;2022-08-19T05:11:45;28.13;;;19.83;;
7823;SDS011;3957;48.61947800;9.05303100;2022-08-19T05:13:06;27.65;;;19.05;;
7823;SDS011;3957;48.61947800;9.05303100;2022-08-19T05:14:29;29.70;;;19.75;;
7823;SDS011;3957;48.61947800;9.05303100;2022-08-19T05:15:53;28.13;;;19.70;;
7823;SDS011;3957;48.61947800;9.05303100;2022-08-19T05:17:16;27.13;;;19.13;;
7823;SDS011;3957;48.61947800;9.05303100;2022-08-19T05:18:37;27.98;;;19.02;;
7823;SDS011;3957;48.61947800;9.05303100;2022-08-19T05:20:16;30.52;;;20.10;;
7823;SDS011;3957;48.61947800;9.05303100;2022-08-19T05:21:55;25.95;;;18.00;;
7823;SDS011;3957;48.61947800;9.05303100;2022-08-19T05:23:35;30.35;;;19.70;;
7823;SDS011;3957;48.61947800;9.05303100;2022-08-19T05:24:56;26.33;;;18.15;;
7823;SDS011;3957;48.61947800;9.05303100;2022-08-19T05:26:16;28.33;;;19.27;;
7823;SDS011;3957;48.61947800;9.05303100;2022-08-19T05:27:37;29.60;;;19.60;;
7823;SDS011;3957;48.61947800;9.05303100;2022-08-19T05:28:59;24.65;;;17.63;;
7823;SDS011;3957;48.61947800;9.05303100;2022-08-19T05:30:20;27.98;;;19.20;;
7823;SDS011;3957;48.61947800;9.05303100;2022-08-19T05:31:40;25.85;;;18.50;;
7823;SDS011;3957;48.61947800;9.05303100;2022-08-19T05:33:01;29.20;;;20.08;;
7823;SDS011;3957;48.61947800;9.05303100;2022-08-19T05:34:23;25.55;;;18.33;;
7823;SDS011;3957;48.61947800;9.05303100;2022-08-19T05:35:46;28.35;;;18.75;;
7823;SDS011;3957;48.61947800;9.05303100;2022-08-19T05:37:08;30.85;;;19.88;;
7823;SDS011;3957;48.61947800;9.05303100;2022-08-19T05:38:29;26.55;;;18.48;;
7823;SDS011;3957;48.61947800;9.05303100;2022-08-19T05:39:50;26.17;;;18.55;;
7823;SDS011;3957;48.61947800;9.05303100;2022-08-19T05:41:12;27.13;;;18.15;;
7823;SDS011;3957;48.61947800;9.05303100;2022-08-19T05:42:33;27.85;;;19.02;;
7823;SDS011;3957;48.61947800;9.05303100;2022-08-19T05:44:00;23.00;;;17.00;;
7823;SDS011;3957;48.61947800;9.05303100;2022-08-19T05:45:23;22.48;;;15.93;;
7823;SDS011;3957;48.61947800;9.05303100;2022-08-19T05:46:45;23.92;;;17.33;;
7823;SDS011;3957;48.61947800;9.05303100;2022-08-19T05:48:09;26.70;;;19.13;;
7823;SDS011;3957;48.61947800;9.05303100;2022-08-19T05:49:32;27.02;;;18.65;;
7823;SDS011;3957;48.61947800;9.05303100;2022-08-19T05:50:53;23.90;;;16.92;;
7823;SDS011;3957;48.61947800;9.05303100;2022-08-19T05:52:14;26.13;;;17.85;;
7823;SDS011;3957;48.61947800;9.05303100;2022-08-19T05:53:36;23.52;;;16.85;;
7823;SDS011;3957;48.61947800;9.05303100;2022-08-19T05:54:57;24.77;;;17.23;;
7823;SDS011;3957;48.61947800;9.05303100;2022-08-19T05:56:18;26.25;;;18.35;;
7823;SDS011;3957;48.61947800;9.05303100;2022-08-19T05:57:40;28.92;;;18.92;;
7823;SDS011;3957;48.61947800;9.05303100;2022-08-19T05:59:01;28.08;;;18.25;;
7823;SDS011;3957;48.61947800;9.05303100;2022-08-19T06:00:22;23.10;;;16.60;;
7823;SDS011;3957;48.61947800;9.05303100;2022-08-19T06:01:44;22.48;;;16.13;;
7823;SDS011;3957;48.61947800;9.05303100;2022-08-19T06:03:06;22.60;;;16.50;;
7823;SDS011;3957;48.61947800;9.05303100;2022-08-19T06:04:27;25.90;;;18.35;;
7823;SDS011;3957;48.61947800;9.05303100;2022-08-19T06:05:47;22.92;;;16.95;;
7823;SDS011;3957;48.61947800;9.05303100;2022-08-19T06:07:08;27.08;;;18.35;;
7823;SDS011;3957;48.61947800;9.05303100;2022-08-19T06:08:29;27.05;;;18.85;;
7823;SDS011;3957;48.61947800;9.05303100;2022-08-19T06:09:50;24.35;;;17.73;;
7823;SDS011;3957;48.61947800;9.05303100;2022-08-19T06:11:16;30.33;;;17.20;;
7823;SDS011;3957;48.61947800;9.05303100;2022-08-19T06:12:56;22.75;;;16.27;;
7823;SDS011;3957;48.61947800;9.05303100;2022-08-19T06:14:18;21.73;;;15.45;;
7823;SDS011;3957;48.61947800;9.05303100;2022-08-19T06:15:41;28.08;;;18.83;;
7823;SDS011;3957;48.61947800;9.05303100;2022-08-19T06:17:04;20.40;;;15.05;;
7823;SDS011;3957;48.61947800;9.05303100;2022-08-19T06:18:25;19.88;;;13.90;;
7823;SDS011;3957;48.61947800;9.05303100;2022-08-19T06:19:45;20.48;;;13.65;;
7823;SDS011;3957;48.61947800;9.05303100;2022-08-19T06:21:06;20.60;;;14.13;;
7823;SDS011;3957;48.61947800;9.05303100;2022-08-19T06:22:27;23.58;;;17.40;;
7823;SDS011;3957;48.61947800;9.05303100;2022-08-19T06:23:48;23.42;;;16.00;;
7823;SDS011;3957;48.61947800;9.05303100;2022-08-19T06:25:12;24.88;;;17.48;;
7823;SDS011;3957;48.61947800;9.05303100;2022-08-19T06:26:34;21.85;;;15.68;;
7823;SDS011;3957;48.61947800;9.05303100;2022-08-19T06:27:57;24.15;;;16.33;;
7823;SDS011;3957;48.61947800;9.05303100;2022-08-19T06:29:18;23.98;;;18.08;;
7823;SDS011;3957;48.61947800;9.05303100;2022-08-19T06:30:41;24.05;;;16.65;;
7823;SDS011;3957;48.61947800;9.05303100;2022-08-19T06:32:02;21.30;;;15.00;;
7823;SDS011;3957;48.61947800;9.05303100;2022-08-19T06:33:23;25.02;;;17.60;;
7823;SDS011;3957;48.61947800;9.05303100;2022-08-19T06:34:44;27.98;;;17.60;;
7823;SDS011;3957;48.61947800;9.05303100;2022-08-19T06:36:05;23.15;;;16.75;;
7823;SDS011;3957;48.61947800;9.05303100;2022-08-19T06:37:26;22.88;;;16.05;;
7823;SDS011;3957;48.61947800;9.05303100;2022-08-19T06:38:47;22.73;;;16.40;;
7823;SDS011;3957;48.61947800;9.05303100;2022-08-19T06:40:08;22.20;;;16.48;;
7823;SDS011;3957;48.61947800;9.05303100;2022-08-19T06:41:33;20.23;;;14.85;;
7823;SDS011;3957;48.61947800;9.05303100;2022-08-19T06:42:55;27.25;;;18.23;;
7823;SDS011;3957;48.61947800;9.05303100;2022-08-19T06:44:18;23.42;;;15.52;;
7823;SDS011;3957;48.61947800;9.05303100;2022-08-19T06:45:41;23.35;;;17.13;;
7823;SDS011;3957;48.61947800;9.05303100;2022-08-19T06:47:03;24.83;;;17.55;;
7823;SDS011;3957;48.61947800;9.05303100;2022-08-19T06:48:26;26.65;;;17.23;;
7823;SDS011;3957;48.61947800;9.05303100;2022-08-19T06:49:47;27.17;;;18.10;;
7823;SDS011;3957;48.61947800;9.05303100;2022-08-19T06:51:07;24.23;;;17.40;;
7823;SDS011;3957;48.61947800;9.05303100;2022-08-19T06:52:34;26.42;;;17.13;;
7823;SDS011;3957;48.61947800;9.05303100;2022-08-19T06:53:55;26.75;;;18.38;;
7823;SDS011;3957;48.61947800;9.05303100;2022-08-19T06:55:16;25.52;;;17.67;;
7823;SDS011;3957;48.61947800;9.05303100;2022-08-19T06:56:37;25.33;;;17.17;;
7823;SDS011;3957;48.61947800;9.05303100;2022-08-19T06:58:00;22.50;;;15.82;;
7823;SDS011;3957;48.61947800;9.05303100;2022-08-19T06:59:24;25.35;;;16.88;;
7823;SDS011;3957;48.61947800;9.05303100;2022-08-19T07:00:47;22.73;;;15.30;;
7823;SDS011;3957;48.61947800;9.05303100;2022-08-19T07:02:09;21.10;;;14.23;;
7823;SDS011;3957;48.61947800;9.05303100;2022-08-19T07:03:33;19.95;;;15.05;;
7823;SDS011;3957;48.61947800;9.05303100;2022-08-19T07:04:56;22.95;;;16.15;;
7823;SDS011;3957;48.61947800;9.05303100;2022-08-19T07:06:22;22.27;;;15.93;;
7823;SDS011;3957;48.61947800;9.05303100;2022-08-19T07:07:43;20.70;;;15.63;;
7823;SDS011;3957;48.61947800;9.05303100;2022-08-19T07:09:04;24.50;;;17.38;;
7823;SDS011;3957;48.61947800;9.05303100;2022-08-19T07:10:26;25.35;;;17.35;;
7823;SDS011;3957;48.61947800;9.05303100;2022-08-19T07:11:48;25.13;;;17.23;;
7823;SDS011;3957;48.61947800;9.05303100;2022-08-19T07:13:10;25.65;;;16.50;;